Time;durP1;ratioP1;P1;durP2;ratioP2;P2;SDS_P1;SDS_P2;PMS_P1;PMS_P2;Temp;Humidity;BMP_temperature;BMP_pressure;BME280_temperature;BME280_humidity;BME280_pressure;Samples;Min_cycle;Max_cycle;Signal;HPM_P1;HPM_P2
2022/08/11 00:01:06;;;;;;;7.72;5.22;;;;;;;;;;5074487;28;20505;-80
2022/08/11 00:03:33;;;;;;;7.68;5.28;;;;;;;;;;5107558;28;20577;-80
2022/08/11 00:05:59;;;;;;;7.68;5.05;;;18.50;99.90;;;;;;5108394;28;20429;-80
2022/08/11 00:08:27;;;;;;;7.85;5.38;;;;;;;;;;5058629;28;20417;-80
2022/08/11 00:10:56;;;;;;;7.13;5.28;;;18.40;99.90;;;;;;5074097;28;20825;-80
2022/08/11 00:13:29;;;;;;;7.30;5.30;;;18.40;99.90;;;;;;5106172;28;20490;-80
2022/08/11 00:15:56;;;;;;;7.60;5.00;;;18.50;99.90;;;;;;5075028;28;20864;-80
2022/08/11 00:18:22;;;;;;;8.75;4.97;;;18.40;99.90;;;;;;5074633;28;20964;-80
2022/08/11 00:20:48;;;;;;;7.05;5.47;;;18.20;99.90;;;;;;5092917;28;20923;-81
2022/08/11 00:23:16;;;;;;;6.75;5.22;;;18.30;99.90;;;;;;5087537;28;20422;-81
2022/08/11 00:25:48;;;;;;;8.05;5.40;;;18.30;99.90;;;;;;5074497;28;20428;-81
2022/08/11 00:28:40;;;;;;;6.95;5.57;;;18.20;99.90;;;;;;5075347;28;20418;-80
2022/08/11 00:31:09;;;;;;;15.40;5.90;;;18.10;99.90;;;;;;5070889;28;20430;-81
2022/08/11 00:33:41;;;;;;;8.90;6.13;;;18.40;99.90;;;;;;5098739;28;20410;-81
2022/08/11 00:36:09;;;;;;;8.68;6.22;;;18.20;99.90;;;;;;5072908;28;20429;-81
2022/08/11 00:38:41;;;;;;;9.23;6.00;;;18.40;99.90;;;;;;5107460;28;20422;-82
2022/08/11 00:41:10;;;;;;;8.02;6.30;;;;;;;;;;5057920;28;20420;-81
2022/08/11 00:43:49;;;;;;;9.63;6.40;;;18.10;99.90;;;;;;5089207;28;20499;-81
2022/08/11 00:46:24;;;;;;;9.18;6.63;;;18.00;99.90;;;;;;5089791;28;20796;-81
2022/08/11 00:49:12;;;;;;;8.93;6.65;;;18.20;99.90;;;;;;5106255;28;20449;-81
2022/08/11 00:51:57;;;;;;;10.32;7.00;;;18.10;99.90;;;;;;5056522;28;20422;-81
2022/08/11 00:54:26;;;;;;;8.63;7.53;;;;;;;;;;5072625;28;20501;-81
2022/08/11 00:57:12;;;;;;;10.65;7.60;;;17.60;99.90;;;;;;5054839;28;20469;-81
2022/08/11 00:59:41;;;;;;;11.23;7.70;;;;;;;;;;5088669;28;20479;-81
2022/08/11 01:02:36;;;;;;;8.98;7.55;;;17.60;99.90;;;;;;5068075;28;20497;-80
2022/08/11 01:05:08;;;;;;;10.43;8.07;;;;;;;;;;5071724;28;20508;-80
2022/08/11 01:08:04;;;;;;;11.13;8.43;;;17.70;99.90;;;;;;5089639;28;20422;-79
2022/08/11 01:10:53;;;;;;;9.55;8.10;;;17.60;99.90;;;;;;5088584;28;20433;-79
2022/08/11 01:13:45;;;;;;;11.87;8.07;;;17.80;99.90;;;;;;5064455;28;20842;-79
2022/08/11 01:16:32;;;;;;;11.73;8.67;;;17.70;99.90;;;;;;5105076;28;20478;-79
2022/08/11 01:19:36;;;;;;;10.38;8.85;;;17.50;99.90;;;;;;5073953;28;20471;-79
2022/08/11 01:22:21;;;;;;;10.80;8.77;;;;;;;;;;5089610;28;20497;-79
2022/08/11 01:25:18;;;;;;;11.77;8.50;;;17.50;99.90;;;;;;5088147;28;20422;-79
2022/08/11 01:28:05;;;;;;;12.38;8.88;;;17.50;99.90;;;;;;5074679;28;20483;-79
2022/08/11 01:30:38;;;;;;;12.90;9.43;;;;;;;;;;5091017;28;20967;-79
2022/08/11 01:33:41;;;;;;;10.18;8.52;;;17.50;99.90;;;;;;5085943;28;20835;-79
2022/08/11 01:36:44;;;;;;;13.07;9.23;;;17.20;99.90;;;;;;5073181;28;20610;-80
2022/08/11 01:39:13;;;;;;;14.55;9.43;;;;;;;;;;5093686;28;20423;-80
2022/08/11 01:44:47;;;;;;;12.82;9.13;;;;;;;;;;5068426;28;20423;-79
2022/08/11 01:50:32;;;;;;;12.52;9.68;;;17.20;99.90;;;;;;5104737;28;20766;-79
2022/08/11 01:53:02;;;;;;;14.35;10.27;;;;;;;;;;5073604;28;20466;-79
2022/08/11 01:55:46;;;;;;;13.52;10.10;;;17.20;99.90;;;;;;5063788;28;20888;-79
2022/08/11 01:58:56;;;;;;;13.95;10.35;;;17.10;99.90;;;;;;5066563;28;20916;-79
2022/08/11 02:01:51;;;;;;;14.25;11.20;;;17.10;99.90;;;;;;5047894;28;20453;-79
2022/08/11 02:04:29;;;;;;;14.80;10.43;;;;;;;;;;5051110;28;20452;-79
2022/08/11 02:07:01;;;;;;;13.80;10.67;;;;;;;;;;5049880;28;20417;-80
2022/08/11 02:09:30;;;;;;;13.13;10.15;;;;;;;;;;5048464;28;20436;-79
2022/08/11 02:11:59;;;;;;;13.88;11.18;;;;;;;;;;5033063;28;20455;-79
2022/08/11 02:14:43;;;;;;;14.73;11.43;;;16.80;99.90;;;;;;5047455;28;20429;-79
2022/08/11 02:17:21;;;;;;;17.42;12.60;;;16.80;99.90;;;;;;5043237;28;20420;-79
2022/08/11 02:26:06;;;;;;;19.35;12.80;;;16.90;99.90;;;;;;5049569;28;20925;-79
2022/08/11 02:28:51;;;;;;;17.88;12.73;;;;;;;;;;5048143;28;20429;-79
2022/08/11 02:34:26;;;;;;;17.85;13.30;;;16.80;99.90;;;;;;5082950;28;20800;-80
2022/08/11 02:37:13;;;;;;;16.48;12.93;;;16.90;99.90;;;;;;5022636;28;20481;-80
2022/08/11 02:40:02;;;;;;;17.63;12.77;;;16.90;99.90;;;;;;5047051;28;20433;-80
2022/08/11 02:42:44;;;;;;;18.90;12.60;;;16.70;99.90;;;;;;5049260;28;20421;-81
2022/08/11 02:45:10;;;;;;;19.13;13.70;;;;;;;;;;5046811;28;20417;-80
2022/08/11 02:50:49;;;;;;;17.38;13.32;;;;;;;;;;5076919;28;20506;-81
2022/08/11 02:54:00;;;;;;;19.42;13.88;;;16.50;99.90;;;;;;5082860;28;20420;-80
2022/08/11 02:56:43;;;;;;;16.98;13.32;;;16.80;99.90;;;;;;5006481;28;20421;-80
2022/08/11 02:59:49;;;;;;;16.38;13.00;;;16.40;99.90;;;;;;5051324;28;20419;-80
2022/08/11 03:02:34;;;;;;;19.10;13.88;;;16.40;99.90;;;;;;5072044;28;20454;-79
2022/08/11 03:05:13;;;;;;;17.95;13.50;;;16.30;99.90;;;;;;5072949;28;20426;-78
2022/08/11 03:07:45;;;;;;;18.58;13.95;;;;;;;;;;5088551;28;20427;-79
2022/08/11 03:10:19;;;;;;;18.92;14.07;;;16.40;99.90;;;;;;5075235;28;20471;-78
2022/08/11 03:16:44;;;;;;;19.60;15.43;;;16.70;99.90;;;;;;5106682;28;20466;-79
2022/08/11 03:19:32;;;;;;;20.50;15.63;;;16.40;99.90;;;;;;5072497;28;20428;-78
2022/08/11 03:22:17;;;;;;;22.33;16.52;;;;;;;;;;5104531;28;20415;-78
2022/08/11 03:25:07;;;;;;;22.05;16.15;;;16.30;99.90;;;;;;5070318;28;20431;-78
2022/08/11 03:28:02;;;;;;;21.77;16.58;;;;;;;;;;5072268;28;20838;-73
2022/08/11 03:30:41;;;;;;;22.92;17.00;;;16.10;99.90;;;;;;5070203;28;20428;-73
2022/08/11 03:36:31;;;;;;;23.73;17.80;;;;;;;;;;5106090;28;20427;-74
2022/08/11 03:39:26;;;;;;;23.60;16.60;;;16.20;99.90;;;;;;5069909;28;20423;-74
2022/08/11 03:41:55;;;;;;;27.13;18.65;;;;;;;;;;5071419;28;20426;-74
2022/08/11 03:45:05;;;;;;;27.88;18.73;;;16.10;99.90;;;;;;5073025;28;20475;-74
2022/08/11 03:47:46;;;;;;;23.15;18.55;;;;;;;;;;5096797;28;20823;-75
2022/08/11 03:50:31;;;;;;;27.90;19.88;;;;;;;;;;5082931;28;20516;-75
2022/08/11 03:53:19;;;;;;;26.75;19.45;;;16.00;99.90;;;;;;5073782;28;20424;-75
2022/08/11 03:56:10;;;;;;;24.55;18.88;;;;;;;;;;5071724;28;20419;-74
2022/08/11 03:59:16;;;;;;;26.10;20.05;;;16.00;99.90;;;;;;5074730;28;20422;-75
2022/08/11 04:01:42;;;;;;;25.33;18.45;;;;;;;;;;5073977;28;20943;-74
2022/08/11 04:04:35;;;;;;;28.37;19.57;;;16.00;99.90;;;;;;5075340;28;20891;-74
2022/08/11 04:07:04;;;;;;;33.25;21.52;;;;;;;;;;5103845;28;20418;-74
2022/08/11 04:09:55;;;;;;;30.98;21.40;;;16.20;99.90;;;;;;5048416;28;20873;-74
2022/08/11 04:12:32;;;;;;;30.85;21.90;;;;;;;;;;5100622;28;20418;-74
2022/08/11 04:19:04;;;;;;;32.72;22.17;;;16.20;99.90;;;;;;5039174;28;20426;-74
2022/08/11 04:21:55;;;;;;;29.88;21.52;;;15.70;99.90;;;;;;5073145;28;20504;-74
2022/08/11 04:24:23;;;;;;;33.40;23.13;;;;;;;;;;5107901;28;20906;-74
2022/08/11 04:27:12;;;;;;;34.35;23.58;;;16.00;99.90;;;;;;5074703;28;20426;-74
2022/08/11 04:29:57;;;;;;;31.77;21.77;;;;;;;;;;5055375;28;20410;-74
2022/08/11 04:32:46;;;;;;;32.97;23.20;;;15.90;99.90;;;;;;5071607;28;20410;-74
2022/08/11 04:35:49;;;;;;;31.88;22.92;;;15.80;99.90;;;;;;5046453;28;20920;-74
2022/08/11 04:38:46;;;;;;;35.22;23.60;;;16.00;99.90;;;;;;5053641;28;20501;-74
2022/08/11 04:41:33;;;;;;;33.03;22.92;;;16.00;99.90;;;;;;5105702;28;20418;-74
2022/08/11 04:44:18;;;;;;;30.55;22.25;;;;;;;;;;5091993;28;20402;-74
2022/08/11 04:47:11;;;;;;;32.38;22.17;;;15.90;99.90;;;;;;5107038;28;20429;-74
2022/08/11 05:02:09;;;;;;;30.25;22.27;;;15.90;99.90;;;;;;5071212;28;20471;-74
2022/08/11 05:07:36;;;;;;;35.58;24.13;;;;;;;;;;5057190;28;20422;-75
2022/08/11 05:10:28;;;;;;;32.00;21.67;;;16.20;99.90;;;;;;5073463;28;20414;-74
2022/08/11 05:36:35;;;;;;;23.55;18.92;;;16.50;99.90;;;;;;5106089;28;20952;-74
2022/08/11 05:58:38;;;;;;;19.90;16.25;;;17.60;99.90;;;;;;5061262;28;20480;-73
2022/08/11 06:01:05;;;;;;;18.85;15.70;;;17.60;99.90;;;;;;5088186;28;20967;-73
2022/08/11 06:04:13;;;;;;;19.52;15.32;;;17.80;99.90;;;;;;5069767;28;20461;-73
2022/08/11 06:06:24;;;;;;;21.20;15.63;;;;;;;;;;5070817;28;20437;-73
2022/08/11 06:08:55;;;;;;;18.27;14.73;;;17.80;99.90;;;;;;5071820;28;20424;-73
2022/08/11 06:11:23;;;;;;;19.48;14.45;;;18.30;99.90;;;;;;5072746;28;20441;-74
2022/08/11 06:13:51;;;;;;;18.42;13.88;;;18.30;99.90;;;;;;5073163;28;20398;-74
2022/08/11 06:16:21;;;;;;;20.20;14.20;;;;;;;;;;5072785;28;20849;-74
2022/08/11 06:18:48;;;;;;;18.73;13.35;;;;;;;;;;5054668;28;20426;-74
2022/08/11 06:21:15;;;;;;;19.15;13.40;;;18.70;99.90;;;;;;5102372;28;20424;-74
2022/08/11 06:23:42;;;;;;;16.45;13.48;;;;;;;;;;5072226;28;20417;-73
2022/08/11 06:26:12;;;;;;;15.73;12.80;;;18.80;99.90;;;;;;5070447;28;20516;-74
2022/08/11 06:28:40;;;;;;;15.25;12.48;;;;;;;;;;5087551;28;20943;-74
2022/08/11 06:31:16;;;;;;;13.50;11.85;;;19.30;99.90;;;;;;5099883;28;20421;-74
2022/08/11 06:34:00;;;;;;;13.38;11.10;;;;;;;;;;5071839;28;20483;-74
2022/08/11 06:36:47;;;;;;;13.15;10.90;;;;;;;;;;5072430;28;20428;-74
2022/08/11 06:39:51;;;;;;;16.90;11.50;;;19.70;99.90;;;;;;5071364;28;20805;-74
2022/08/11 06:42:47;;;;;;;14.95;11.35;;;19.80;99.90;;;;;;5089716;28;20524;-74
2022/08/11 06:45:25;;;;;;;13.63;11.32;;;20.10;99.90;;;;;;5068531;28;20428;-74
2022/08/11 06:47:52;;;;;;;13.95;10.85;;;20.10;99.90;;;;;;5068224;28;20430;-74
2022/08/11 06:53:11;;;;;;;13.95;11.40;;;20.10;99.90;;;;;;5101919;28;20426;-74
2022/08/11 07:01:46;;;;;;;13.30;9.65;;;20.60;99.90;;;;;;5075339;28;20456;-75
2022/08/11 07:04:19;;;;;;;11.80;9.60;;;21.00;99.90;;;;;;5058030;28;20445;-75
2022/08/11 07:15:50;;;;;;;11.10;8.30;;;21.70;99.90;;;;;;5071143;28;20458;-76
2022/08/11 07:29:37;;;;;;;10.88;7.43;;;22.10;99.90;;;;;;5072384;28;20491;-77
2022/08/11 07:32:13;;;;;;;11.52;7.10;;;21.90;99.90;;;;;;5070443;28;20418;-77
2022/08/11 07:34:46;;;;;;;9.38;6.47;;;22.40;99.90;;;;;;5069082;28;20440;-77
2022/08/11 07:37:16;;;;;;;8.07;6.60;;;22.60;99.90;;;;;;5055446;28;20431;-76
2022/08/11 07:39:45;;;;;;;10.05;6.40;;;22.70;99.90;;;;;;5074984;28;20424;-76
2022/08/11 07:42:15;;;;;;;9.23;6.35;;;22.90;99.90;;;;;;5070299;28;20449;-76
2022/08/11 07:52:58;;;;;;;7.97;5.33;;;23.50;99.90;;;;;;5072172;28;20962;-77
2022/08/11 07:55:26;;;;;;;10.07;5.10;;;23.70;99.90;;;;;;5067143;28;20973;-76
2022/08/11 08:20:11;;;;;;;7.03;3.50;;;25.20;99.90;;;;;;5074104;28;20975;-77
2022/08/11 08:22:38;;;;;;;10.02;3.80;;;25.20;99.90;;;;;;5042319;28;20419;-77
2022/08/11 08:25:06;;;;;;;6.15;3.35;;;25.10;99.90;;;;;;5054915;28;20775;-77
2022/08/11 08:27:34;;;;;;;5.60;3.15;;;25.20;99.90;;;;;;5074419;28;20500;-77
2022/08/11 08:32:46;;;;;;;5.57;3.08;;;25.50;99.90;;;;;;5101147;28;20767;-77
2022/08/11 08:35:13;;;;;;;5.75;3.03;;;25.60;99.90;;;;;;5069241;28;20992;-77
2022/08/11 08:37:39;;;;;;;5.82;2.95;;;25.90;99.90;;;;;;5069576;28;20427;-76
2022/08/11 08:40:07;;;;;;;5.45;2.42;;;26.10;99.90;;;;;;5071190;28;20469;-77
2022/08/11 08:42:40;;;;;;;10.43;2.58;;;26.40;99.90;;;;;;5069444;28;20424;-76
2022/08/11 08:45:11;;;;;;;5.68;2.33;;;26.60;99.90;;;;;;5073788;28;20441;-77
2022/08/11 08:47:41;;;;;;;4.05;2.47;;;27.00;99.90;;;;;;5069360;28;20419;-77
2022/08/11 08:50:18;;;;;;;5.43;2.40;;;27.10;99.90;;;;;;5070954;28;20477;-77
2022/08/11 08:52:52;;;;;;;3.90;2.30;;;27.30;99.90;;;;;;5067393;28;20419;-77
2022/08/11 08:55:19;;;;;;;5.65;2.30;;;27.40;99.90;;;;;;5072383;28;20423;-77
2022/08/11 08:57:48;;;;;;;7.55;2.60;;;27.30;99.90;;;;;;5069695;28;20438;-77
2022/08/11 09:00:15;;;;;;;4.80;2.22;;;27.20;99.90;;;;;;5073685;28;20419;-78
2022/08/11 09:02:43;;;;;;;4.85;2.10;;;27.50;99.90;;;;;;5058107;28;20477;-77
2022/08/11 09:05:10;;;;;;;4.13;2.20;;;27.40;99.90;;;;;;5066904;28;20925;-76
2022/08/11 09:07:36;;;;;;;5.67;2.03;;;27.50;99.90;;;;;;5068713;28;20784;-77
2022/08/11 09:10:03;;;;;;;5.05;2.50;;;27.30;99.90;;;;;;5056893;28;20412;-77
2022/08/11 09:12:33;;;;;;;4.32;2.30;;;27.70;99.90;;;;;;5085180;28;20443;-77
2022/08/11 09:15:02;;;;;;;4.87;2.37;;;27.50;99.90;;;;;;5067329;28;20421;-77
2022/08/11 09:17:29;;;;;;;7.28;2.30;;;28.10;99.90;;;;;;5069243;28;20416;-77
2022/08/11 09:19:59;;;;;;;7.50;2.55;;;28.40;99.90;;;;;;5056914;28;20866;-74
2022/08/11 09:28:10;;;;;;;7.90;2.53;;;28.70;99.90;;;;;;5069753;28;20424;-75
2022/08/11 09:30:36;;;;;;;5.72;2.33;;;28.70;99.90;;;;;;5062675;28;20466;-75
2022/08/11 09:33:04;;;;;;;6.40;2.13;;;28.80;99.90;;;;;;5072801;28;20931;-75
2022/08/11 09:35:35;;;;;;;6.70;2.50;;;28.90;99.90;;;;;;5070942;28;20416;-75
2022/08/11 09:40:48;;;;;;;4.43;2.10;;;29.50;99.90;;;;;;5104076;28;20426;-75
2022/08/11 09:46:02;;;;;;;4.40;2.10;;;28.70;99.90;;;;;;5078654;28;20432;-75
2022/08/11 09:48:32;;;;;;;5.70;2.10;;;28.80;99.90;;;;;;5068548;28;20427;-75
2022/08/11 09:51:00;;;;;;;6.90;2.67;;;29.00;99.90;;;;;;5065786;28;20850;-75
2022/08/11 09:53:33;;;;;;;6.03;2.10;;;29.50;99.90;;;;;;5065030;28;20845;-75
2022/08/11 09:58:12;;;;;;;4.20;2.00;;;29.70;99.90;;;;;;5089471;28;20442;-75
2022/08/11 09:58:46;;;;;;;4.60;2.10;;;29.60;99.90;;;;;;5066920;28;20427;-75
2022/08/11 10:01:25;;;;;;;5.15;2.00;;;29.60;99.90;;;;;;5086079;28;20450;-75
2022/08/11 10:04:00;;;;;;;6.22;2.08;;;29.40;99.90;;;;;;5069617;28;20431;-75
2022/08/11 10:09:18;;;;;;;6.75;2.00;;;29.80;99.90;;;;;;5101295;28;20510;-75
2022/08/11 10:11:45;;;;;;;5.53;2.20;;;30.20;99.90;;;;;;5070293;28;20451;-75
2022/08/11 10:16:56;;;;;;;3.85;2.00;;;30.30;99.90;;;;;;5048612;28;20454;-76
2022/08/11 10:19:23;;;;;;;7.55;2.05;;;30.30;99.90;;;;;;5069543;28;20489;-76
2022/08/11 10:27:26;;;;;;;4.20;2.00;;;30.60;99.90;;;;;;5086270;28;20911;-75
2022/08/11 10:35:24;;;;;;;4.45;1.90;;;30.10;99.30;;;;;;5065745;28;20965;-76
2022/08/11 10:37:52;;;;;;;3.13;1.95;;;29.80;99.40;;;;;;5067165;28;20435;-76
2022/08/11 10:40:23;;;;;;;4.90;2.30;;;29.90;99.90;;;;;;5069318;28;20427;-76
2022/08/11 10:43:04;;;;;;;5.57;2.13;;;30.30;99.50;;;;;;5084770;28;20489;-75
2022/08/11 10:48:33;;;;;;;3.35;2.00;;;30.50;99.00;;;;;;5100689;28;20473;-78
2022/08/11 10:51:14;;;;;;;6.55;2.00;;;30.70;99.40;;;;;;5098811;28;20426;-77
2022/08/11 10:59:25;;;;;;;5.83;2.00;;;29.70;98.00;;;;;;5101432;28;20832;-77
2022/08/11 11:01:53;;;;;;;3.70;2.10;;;30.50;98.70;;;;;;5068696;28;20515;-77
2022/08/11 11:04:55;;;;;;;5.78;2.10;;;30.50;98.00;;;;;;5067329;28;20934;-77
2022/08/11 11:07:28;;;;;;;4.00;2.00;;;31.00;98.10;;;;;;5075762;28;20420;-77
2022/08/11 11:09:57;;;;;;;5.30;1.90;;;30.90;98.30;;;;;;5100034;28;20419;-77
2022/08/11 11:18:27;;;;;;;5.18;1.80;;;29.80;96.90;;;;;;5059902;28;20427;-75
2022/08/11 11:21:03;;;;;;;3.50;1.70;;;30.10;97.50;;;;;;5056883;28;21191;-75
2022/08/11 11:23:40;;;;;;;4.13;1.90;;;30.20;98.00;;;;;;5071347;28;20415;-75
2022/08/11 11:26:26;;;;;;;4.75;1.90;;;30.20;97.00;;;;;;5070373;28;20416;-76
2022/08/11 11:29:21;;;;;;;3.50;1.80;;;30.40;97.10;;;;;;5067074;28;20433;-76
2022/08/11 11:31:57;;;;;;;2.95;1.85;;;30.30;96.20;;;;;;5066527;28;20457;-76
2022/08/11 11:34:45;;;;;;;4.10;2.10;;;30.10;97.40;;;;;;5072457;28;20477;-75
2022/08/11 11:37:13;;;;;;;6.25;1.92;;;30.30;96.90;;;;;;5046815;28;20814;-75
2022/08/11 11:39:39;;;;;;;3.67;1.90;;;30.30;97.60;;;;;;5047793;28;20419;-77
2022/08/11 11:42:08;;;;;;;5.93;1.98;;;30.60;96.80;;;;;;5049322;28;20418;-77
2022/08/11 11:44:37;;;;;;;3.60;1.80;;;31.20;96.40;;;;;;5065048;28;20492;-75
2022/08/11 11:47:04;;;;;;;2.95;1.63;;;30.80;96.40;;;;;;5066742;28;20423;-75
2022/08/11 11:49:31;;;;;;;6.80;1.80;;;30.90;96.60;;;;;;5054885;28;20468;-77
2022/08/11 11:51:59;;;;;;;4.10;1.80;;;31.20;96.70;;;;;;5084219;28;20423;-77
2022/08/11 11:54:32;;;;;;;4.95;1.73;;;31.40;96.20;;;;;;5071901;28;20996;-77
2022/08/11 12:01:14;;;;;;;6.18;2.05;;;31.80;96.50;;;;;;5052556;28;20435;-76
2022/08/11 12:02:31;;;;;;;5.75;1.70;;;31.90;95.30;;;;;;5103421;28;20423;-77
2022/08/11 12:04:57;;;;;;;4.07;1.80;;;31.90;95.70;;;;;;5053871;28;20876;-76
2022/08/11 12:10:09;;;;;;;8.82;2.05;;;32.50;94.60;;;;;;5057383;28;20427;-77
2022/08/11 12:15:19;;;;;;;3.50;1.90;;;32.70;94.80;;;;;;5060162;28;20512;-75
2022/08/11 12:17:45;;;;;;;4.60;1.70;;;32.80;94.20;;;;;;5068481;28;20986;-74
2022/08/11 12:20:15;;;;;;;4.55;1.80;;;33.00;94.30;;;;;;5067237;28;20898;-75
2022/08/11 12:28:10;;;;;;;6.03;1.80;;;33.00;92.90;;;;;;5049321;28;20430;-75
2022/08/11 12:30:39;;;;;;;3.10;1.73;;;33.20;93.00;;;;;;5055219;28;20498;-75
2022/08/11 12:33:07;;;;;;;3.28;1.48;;;32.30;92.90;;;;;;5052862;28;20472;-75
2022/08/11 12:35:34;;;;;;;3.67;1.70;;;32.40;93.40;;;;;;5072958;28;20911;-75
2022/08/11 12:38:02;;;;;;;2.60;1.40;;;32.80;93.30;;;;;;5049765;28;20483;-75
2022/08/11 12:46:37;;;;;;;4.80;1.60;;;32.60;92.40;;;;;;5102593;28;20415;-77
2022/08/11 12:52:13;;;;;;;3.42;1.60;;;33.20;92.10;;;;;;5069765;28;20927;-77
2022/08/11 12:54:56;;;;;;;5.07;1.70;;;33.10;91.10;;;;;;5069866;28;20415;-76
2022/08/11 13:05:54;;;;;;;4.55;1.75;;;33.40;91.80;;;;;;5103218;28;20799;-78
2022/08/11 13:08:23;;;;;;;2.70;1.67;;;32.40;91.70;;;;;;5065805;28;20780;-78
2022/08/11 13:13:37;;;;;;;3.30;1.73;;;32.90;91.90;;;;;;5049509;28;20428;-79
2022/08/11 13:16:04;;;;;;;3.92;1.63;;;33.20;91.40;;;;;;5069006;28;20427;-78
2022/08/11 13:18:29;;;;;;;3.28;1.30;;;33.00;91.10;;;;;;5084796;28;20880;-76
2022/08/11 13:20:56;;;;;;;4.82;1.58;;;33.00;91.20;;;;;;5083356;28;20480;-76
2022/08/11 13:23:24;;;;;;;2.78;1.50;;;33.00;90.80;;;;;;5100203;28;20778;-78
2022/08/11 13:25:52;;;;;;;5.15;1.60;;;32.50;91.00;;;;;;5053451;28;20937;-78
2022/08/11 13:28:20;;;;;;;4.17;1.60;;;33.00;91.00;;;;;;5086525;28;20430;-78
2022/08/11 13:33:35;;;;;;;5.88;1.70;;;33.70;90.70;;;;;;5095062;28;20466;-77
2022/08/11 13:36:02;;;;;;;3.22;1.52;;;33.40;90.60;;;;;;5070079;28;20435;-78
2022/08/11 13:38:28;;;;;;;2.35;1.50;;;33.70;89.20;;;;;;5068782;28;20415;-78
2022/08/11 13:40:55;;;;;;;3.50;1.70;;;34.00;90.00;;;;;;5066865;28;20925;-78
2022/08/11 13:43:22;;;;;;;3.20;1.70;;;34.30;89.20;;;;;;5069064;28;20919;-78
2022/08/11 13:45:51;;;;;;;3.45;1.60;;;34.50;89.60;;;;;;5059962;28;20421;-78
2022/08/11 13:48:17;;;;;;;3.53;1.50;;;33.40;88.30;;;;;;5070078;28;20419;-77
2022/08/11 13:53:31;;;;;;;3.70;1.40;;;34.30;88.40;;;;;;5101269;28;20434;-77
2022/08/11 13:55:59;;;;;;;3.47;1.50;;;33.40;89.00;;;;;;5068174;28;20973;-77
2022/08/11 13:58:26;;;;;;;4.47;1.65;;;32.80;90.30;;;;;;5073732;28;20422;-77
2022/08/11 14:00:53;;;;;;;4.80;1.67;;;33.00;90.80;;;;;;5089327;28;20447;-76
2022/08/11 14:03:24;;;;;;;3.10;1.70;;;32.80;90.90;;;;;;5083757;28;20482;-76
2022/08/11 14:05:52;;;;;;;4.15;1.70;;;32.60;90.80;;;;;;5052543;28;20428;-76
2022/08/11 14:08:26;;;;;;;7.38;1.73;;;32.60;91.20;;;;;;5078940;28;20426;-77
2022/08/11 14:13:42;;;;;;;3.92;1.90;;;31.90;91.30;;;;;;5072418;28;20913;-76
2022/08/11 14:16:17;;;;;;;4.45;1.70;;;32.20;90.90;;;;;;5050752;28;20928;-77
2022/08/11 14:18:46;;;;;;;3.80;1.70;;;32.00;91.40;;;;;;5101160;28;20778;-76
2022/08/11 14:24:00;;;;;;;3.53;1.80;;;31.90;91.20;;;;;;5087477;28;20410;-76
2022/08/11 14:26:26;;;;;;;4.18;1.60;;;31.40;90.90;;;;;;5073957;28;20402;-77
2022/08/11 14:29:03;;;;;;;7.72;1.73;;;31.60;91.80;;;;;;5070180;28;20422;-77
2022/08/11 14:31:32;;;;;;;3.77;1.57;;;31.20;91.70;;;;;;5069509;28;20422;-77
2022/08/11 14:34:01;;;;;;;4.10;1.67;;;31.00;92.10;;;;;;5070689;28;20410;-77
2022/08/11 14:36:34;;;;;;;4.38;1.83;;;30.90;92.00;;;;;;5070409;28;20437;-77
2022/08/11 14:39:26;;;;;;;3.08;1.58;;;30.90;91.80;;;;;;5073384;28;20418;-76
2022/08/11 14:47:03;;;;;;;4.07;1.90;;;30.60;91.80;;;;;;5100832;28;20455;-76
2022/08/11 14:47:52;;;;;;;6.20;1.70;;;30.70;92.40;;;;;;5071087;28;21611;-76
2022/08/11 14:50:24;;;;;;;3.28;1.70;;;31.10;92.50;;;;;;5081006;28;20518;-78
2022/08/11 14:52:55;;;;;;;3.63;1.67;;;30.80;92.50;;;;;;5049722;28;20429;-76
2022/08/11 14:58:10;;;;;;;5.63;1.95;;;30.90;92.40;;;;;;5103269;28;20497;-78
2022/08/11 15:00:37;;;;;;;3.45;1.70;;;31.20;92.10;;;;;;5094216;28;20451;-76
2022/08/11 15:03:10;;;;;;;3.63;1.50;;;31.10;92.10;;;;;;5090406;28;20424;-78
2022/08/11 15:05:49;;;;;;;2.70;1.50;;;31.20;92.30;;;;;;5073668;28;20429;-78
2022/08/11 15:08:17;;;;;;;5.60;1.80;;;31.30;91.50;;;;;;5063323;28;20462;-77
2022/08/11 15:10:44;;;;;;;7.50;1.90;;;30.90;92.20;;;;;;5056355;28;20452;-76
2022/08/11 15:13:10;;;;;;;3.60;1.50;;;30.90;92.40;;;;;;5075936;28;20596;-76
2022/08/11 15:18:23;;;;;;;4.95;1.60;;;30.90;92.40;;;;;;5096908;28;20538;-76
2022/08/11 15:37:25;;;;;;;5.00;1.67;;;31.60;92.10;;;;;;5075503;28;20425;-77
2022/08/11 15:37:41;;;;;;;5.38;1.58;;;32.40;90.70;;;;;;5065082;28;20456;-79
2022/08/11 15:46:15;;;;;;;2.97;1.63;;;32.60;90.80;;;;;;5107621;28;20410;-79
2022/08/11 15:48:43;;;;;;;7.75;1.60;;;31.80;91.50;;;;;;5074742;28;20486;-79
2022/08/11 15:51:12;;;;;;;7.97;2.00;;;32.10;91.80;;;;;;5105091;28;20424;-79
2022/08/11 15:53:42;;;;;;;5.63;1.88;;;32.30;91.80;;;;;;5099260;28;20422;-78
2022/08/11 15:56:10;;;;;;;2.63;1.60;;;32.60;91.70;;;;;;5069983;28;20486;-79
2022/08/11 16:04:19;;;;;;;3.83;1.70;;;32.60;91.50;;;;;;5068038;28;20422;-79
2022/08/11 16:06:51;;;;;;;3.50;1.83;;;32.90;91.50;;;;;;5065419;28;20425;-76
2022/08/11 16:10:00;;;;;;;5.70;1.90;;;33.60;90.50;;;;;;5064664;28;20423;-77
2022/08/11 16:12:30;;;;;;;5.20;1.77;;;32.70;90.60;;;;;;5027368;28;20548;-77
2022/08/11 16:17:50;;;;;;;4.75;1.80;;;32.60;91.60;;;;;;5048205;28;20795;-77
2022/08/11 16:20:20;;;;;;;7.10;1.80;;;33.70;91.30;;;;;;5069606;28;20499;-77
2022/08/11 16:22:48;;;;;;;7.28;1.90;;;33.40;91.40;;;;;;5051731;28;20590;-78
2022/08/11 16:25:20;;;;;;;3.17;1.77;;;34.00;91.10;;;;;;5065505;28;20810;-77
2022/08/11 16:27:51;;;;;;;5.90;1.73;;;34.30;90.80;;;;;;5052921;28;20900;-77
2022/08/11 16:30:17;;;;;;;6.97;1.90;;;34.40;90.70;;;;;;5070287;28;20887;-77
2022/08/11 16:32:51;;;;;;;4.03;1.85;;;33.40;90.90;;;;;;5070172;28;20511;-76
2022/08/11 16:40:55;;;;;;;3.40;1.70;;;33.70;91.40;;;;;;5059877;28;20417;-77
2022/08/11 16:49:01;;;;;;;7.03;1.80;;;35.00;91.70;;;;;;5062202;28;20860;-76
2022/08/11 16:51:27;;;;;;;4.07;1.98;;;34.80;91.50;;;;;;5062972;28;20438;-77
2022/08/11 16:53:53;;;;;;;5.85;1.73;;;35.10;91.60;;;;;;5027377;28;20429;-76
2022/08/11 16:56:24;;;;;;;4.93;1.97;;;35.10;91.30;;;;;;5068378;28;20775;-76
2022/08/11 17:01:38;;;;;;;3.60;1.58;;;34.50;91.20;;;;;;5070659;28;20420;-76
2022/08/11 17:18:05;;;;;;;3.60;1.70;;;34.70;91.00;;;;;;5067532;28;20428;-76
2022/08/11 17:20:32;;;;;;;2.50;1.60;;;34.70;91.20;;;;;;5069576;28;20419;-76
2022/08/11 17:25:47;;;;;;;4.40;1.60;;;34.70;91.20;;;;;;5055914;28;20424;-76
2022/08/11 17:28:16;;;;;;;5.40;1.75;;;34.70;91.20;;;;;;5085956;28;20474;-76
2022/08/11 17:36:26;;;;;;;5.20;1.80;;;34.50;91.00;;;;;;5103743;28;20427;-76
2022/08/11 17:38:52;;;;;;;4.37;1.97;;;34.40;91.40;;;;;;5068627;28;20427;-75
2022/08/11 17:49:38;;;;;;;6.25;1.90;;;34.50;91.80;;;;;;5066819;28;20435;-75
2022/08/11 18:00:23;;;;;;;6.85;1.80;;;34.00;91.90;;;;;;5055409;28;20899;-76
2022/08/11 18:05:39;;;;;;;7.93;1.85;;;33.90;92.20;;;;;;5063631;28;20428;-76
